createdAt,value
2022-10-14T00:00:29.830Z,100514.16
2022-10-14T00:02:56.204Z,100512.50
2022-10-14T00:05:22.643Z,100512.50
2022-10-14T00:07:49.003Z,100511.44
2022-10-14T00:10:15.456Z,100515.78
2022-10-14T00:12:41.809Z,100525.81
2022-10-14T00:15:08.490Z,100510.34
2022-10-14T00:17:35.756Z,100510.34
2022-10-14T00:20:02.163Z,100511.19
2022-10-14T00:22:28.584Z,100510.34
2022-10-14T00:24:54.967Z,100506.56
2022-10-14T00:27:21.661Z,100511.19
2022-10-14T00:29:48.222Z,100510.34
2022-10-14T00:32:14.831Z,100503.31
2022-10-14T00:34:41.263Z,100506.28
2022-10-14T00:37:07.619Z,100504.63
2022-10-14T00:39:33.966Z,100498.38
2022-10-14T00:42:00.365Z,100494.03
2022-10-14T00:44:26.687Z,100499.47
2022-10-14T00:46:53.528Z,100493.47
2022-10-14T00:49:22.910Z,100486.41
2022-10-14T00:51:52.795Z,100489.38
2022-10-14T00:54:23.105Z,100492.09
2022-10-14T00:56:50.552Z,100488.56
2022-10-14T00:59:17.121Z,100486.91
2022-10-14T01:01:43.500Z,100484.22
2022-10-14T01:04:09.829Z,100493.16
2022-10-14T01:06:36.156Z,100497.78
2022-10-14T01:09:23.809Z,100494.25
2022-10-14T01:31:37.802Z,100489.59
2022-10-14T01:34:07.318Z,100483.34
2022-10-14T01:36:37.123Z,100480.38
2022-10-14T01:39:10.063Z,100478.72
2022-10-14T01:41:39.281Z,100483.09
2022-10-14T01:44:08.656Z,100485.81
2022-10-14T01:46:36.670Z,100477.41
2022-10-14T01:49:05.764Z,100479.06
2022-10-14T01:51:39.559Z,100469.84
2022-10-14T01:54:08.561Z,100474.16
2022-10-14T01:56:40.193Z,100466.88
2022-10-14T01:59:08.461Z,100470.13
2022-10-14T02:01:36.696Z,100458.19
2022-10-14T02:04:03.138Z,100451.97
2022-10-14T02:06:30.916Z,100453.59
2022-10-14T02:09:03.395Z,100456.28
2022-10-14T02:11:34.366Z,100455.50
2022-10-14T02:14:09.163Z,100459.28
2022-10-14T02:16:41.338Z,100458.19
2022-10-14T02:19:07.670Z,100453.03
2022-10-14T02:21:39.988Z,100457.63
2022-10-14T02:24:12.332Z,100451.41
2022-10-14T02:26:40.237Z,100449.75
2022-10-14T02:29:06.880Z,100454.91
2022-10-14T02:31:34.855Z,100456.00
2022-10-14T02:34:03.370Z,100443.53
2022-10-14T02:36:30.310Z,100448.94
2022-10-14T02:38:58.374Z,100443.78
2022-10-14T02:41:27.311Z,100452.72
2022-10-14T02:43:53.722Z,100445.66
2022-10-14T02:46:21.375Z,100444.84
2022-10-14T02:48:48.422Z,100440.22
2022-10-14T02:51:14.818Z,100440.22
2022-10-14T02:53:41.175Z,100442.13
2022-10-14T02:56:07.687Z,100433.19
2022-10-14T02:58:34.092Z,100441.34
2022-10-14T03:01:00.455Z,100433.19
2022-10-14T03:03:26.806Z,100436.97
2022-10-14T03:05:53.291Z,100430.50
2022-10-14T03:08:19.635Z,100432.38
2022-10-14T03:10:46.788Z,100433.19
2022-10-14T03:13:13.111Z,100420.69
2022-10-14T03:15:39.594Z,100419.63
2022-10-14T03:18:05.969Z,100423.16
2022-10-14T03:20:32.295Z,100419.88
2022-10-14T03:22:58.688Z,100420.69
2022-10-14T03:25:25.091Z,100420.69
2022-10-14T03:27:51.444Z,100423.41
2022-10-14T03:30:17.887Z,100426.13
2022-10-14T03:32:44.256Z,100430.72
2022-10-14T03:35:10.818Z,100423.41
2022-10-14T03:37:37.215Z,100426.13
2022-10-14T03:40:03.720Z,100427.19
2022-10-14T03:42:30.080Z,100427.78
2022-10-14T03:44:56.412Z,100415.28
2022-10-14T03:47:22.840Z,100424.22
2022-10-14T03:49:49.300Z,100411.50
2022-10-14T03:52:15.706Z,100420.44
2022-10-14T03:54:42.111Z,100415.81
2022-10-14T03:57:08.504Z,100418.53
2022-10-14T03:59:34.869Z,100420.19
2022-10-14T04:02:01.254Z,100416.41
2022-10-14T04:04:27.696Z,100419.66
2022-10-14T04:06:54.473Z,100422.94
2022-10-14T04:09:20.839Z,100415.91
2022-10-14T04:11:47.218Z,100414.31
2022-10-14T04:14:13.556Z,100418.72
2022-10-14T04:16:39.939Z,100415.19
2022-10-14T04:19:06.303Z,100413.41
2022-10-14T04:21:32.712Z,100403.66
2022-10-14T04:23:59.031Z,100398.81
2022-10-14T04:26:25.425Z,100402.63
2022-10-14T04:28:51.845Z,100394.78
2022-10-14T04:31:18.346Z,100401.31
2022-10-14T04:33:44.708Z,100398.06
2022-10-14T04:36:11.069Z,100404.06
2022-10-14T04:38:38.705Z,100387.25
2022-10-14T04:41:05.172Z,100391.31
2022-10-14T04:43:31.563Z,100385.34
2022-10-14T04:45:57.978Z,100394.06
2022-10-14T04:48:24.373Z,100388.94
2022-10-14T04:50:54.004Z,100400.06
2022-10-14T04:53:22.378Z,100405.00
2022-10-14T04:55:49.760Z,100404.72
2022-10-14T04:58:16.992Z,100406.63
2022-10-14T05:00:43.523Z,100409.91
2022-10-14T05:03:09.896Z,100416.72
2022-10-14T05:05:36.257Z,100401.22
2022-10-14T05:08:02.811Z,100398.25
2022-10-14T05:10:29.178Z,100402.34
2022-10-14T05:12:55.570Z,100403.97
2022-10-14T05:15:22.043Z,100400.19
2022-10-14T05:17:48.379Z,100396.41
2022-10-14T05:20:14.872Z,100399.66
2022-10-14T05:22:41.231Z,100395.84
2022-10-14T05:25:07.707Z,100396.41
2022-10-14T05:27:34.149Z,100393.69
2022-10-14T05:30:00.668Z,100389.34
2022-10-14T05:32:27.036Z,100372.47
2022-10-14T05:34:53.362Z,100374.66
2022-10-14T05:37:19.711Z,100381.72
2022-10-14T05:39:46.581Z,100379.50
2022-10-14T05:42:12.964Z,100382.19
2022-10-14T05:44:39.332Z,100386.53
2022-10-14T05:47:05.677Z,100383.78
2022-10-14T05:49:32.000Z,100387.31
2022-10-14T07:17:50.414Z,100385.81
2022-10-14T07:20:19.446Z,100385.81
2022-10-14T07:22:45.878Z,100388.25
2022-10-14T07:25:12.626Z,100392.59
2022-10-14T07:27:39.003Z,100393.13
2022-10-14T07:30:08.266Z,100392.06
2022-10-14T07:32:36.855Z,100386.38
2022-10-14T07:35:04.104Z,100386.38
2022-10-14T07:37:30.487Z,100378.78
2022-10-14T07:39:56.863Z,100386.66
2022-10-14T07:42:23.215Z,100385.34
2022-10-14T07:44:50.312Z,100382.34
2022-10-14T07:47:16.773Z,100384.78
2022-10-14T07:49:43.134Z,100381.53
2022-10-14T07:52:09.538Z,100388.34
2022-10-14T07:54:35.899Z,100379.94
2022-10-14T07:57:02.274Z,100390.78
2022-10-14T07:59:28.732Z,100395.72
2022-10-14T08:01:56.672Z,100395.72
2022-10-14T08:04:23.987Z,100391.94
2022-10-14T08:06:51.127Z,100394.91
2022-10-14T08:09:18.629Z,100396.81
2022-10-14T08:11:45.316Z,100393.56
2022-10-14T08:14:12.044Z,100402.56
2022-10-14T08:16:38.898Z,100402.28
2022-10-14T08:19:12.557Z,100401.19
2022-10-14T08:21:41.504Z,100395.75
2022-10-14T08:24:08.131Z,100396.88
2022-10-14T08:26:36.327Z,100394.16
2022-10-14T08:29:04.602Z,100391.97
2022-10-14T08:31:31.816Z,100387.13
2022-10-14T08:33:58.387Z,100386.84
2022-10-14T08:36:24.826Z,100390.94
2022-10-14T08:38:52.367Z,100391.47
2022-10-14T08:41:37.596Z,100383.88
2022-10-14T08:44:04.075Z,100386.06
2022-10-14T08:46:51.967Z,100374.69
2022-10-14T08:49:28.906Z,100375.78
2022-10-14T08:51:58.893Z,100375.78
2022-10-14T08:54:32.140Z,100368.19
2022-10-14T08:56:58.919Z,100373.13
2022-10-14T08:59:26.348Z,100369.38
2022-10-14T09:01:55.378Z,100375.38
2022-10-14T09:04:22.088Z,100362.31
2022-10-14T09:06:51.939Z,100352.00
2022-10-14T09:09:33.618Z,100359.38
2022-10-14T09:12:02.746Z,100357.44
2022-10-14T09:14:35.974Z,100347.13
2022-10-14T09:17:06.641Z,100352.56
2022-10-14T09:19:36.853Z,100351.16
2022-10-14T09:22:03.359Z,100345.38
2022-10-14T09:24:37.306Z,100350.53
2022-10-14T09:27:10.083Z,100343.13
2022-10-14T09:30:10.318Z,100346.13
2022-10-14T09:32:40.463Z,100346.91
2022-10-14T09:35:27.608Z,100335.69
2022-10-14T09:37:54.120Z,100350.91
2022-10-14T09:40:20.459Z,100349.78
2022-10-14T09:42:57.011Z,100343.47
2022-10-14T09:45:24.610Z,100345.91
2022-10-14T09:47:51.041Z,100349.72
2022-10-14T09:50:26.243Z,100341.22
2022-10-14T09:52:54.473Z,100339.56
2022-10-14T09:55:24.093Z,100338.44
2022-10-14T09:58:17.139Z,100332.97
2022-10-14T10:00:45.262Z,100326.72
2022-10-14T10:03:24.629Z,100328.34
2022-10-14T10:05:59.245Z,100334.63
2022-10-14T10:08:26.680Z,100330.78
2022-10-14T10:11:00.485Z,100315.00
2022-10-14T10:13:33.321Z,100314.16
2022-10-14T10:16:01.057Z,100310.94
2022-10-14T10:18:27.502Z,100311.75
2022-10-14T10:21:02.265Z,100314.25
2022-10-14T10:23:29.566Z,100310.19
2022-10-14T10:25:55.935Z,100309.38
2022-10-14T10:28:32.149Z,100316.50
2022-10-14T10:31:17.571Z,100302.09
2022-10-14T10:33:43.935Z,100298.03
2022-10-14T10:36:26.429Z,100301.84
2022-10-14T10:39:02.681Z,100293.94
2022-10-14T10:41:29.009Z,100284.69
2022-10-14T10:43:58.337Z,100287.41
2022-10-14T10:46:45.110Z,100283.88
2022-10-14T10:49:20.702Z,100276.78
2022-10-14T10:51:55.164Z,100278.41
2022-10-14T10:54:41.318Z,100263.97
2022-10-14T10:57:30.283Z,100281.91
2022-10-14T11:00:01.450Z,100261.16
2022-10-14T11:02:45.951Z,100250.22
2022-10-14T11:05:16.050Z,100255.38
2022-10-14T11:08:10.718Z,100250.41
2022-10-14T11:11:14.886Z,100243.84
2022-10-14T11:13:45.373Z,100241.88
2022-10-14T11:16:34.429Z,100239.66
2022-10-14T11:19:21.028Z,100238.50
2022-10-14T11:21:47.397Z,100242.25
2022-10-14T11:24:20.113Z,100237.59
2022-10-14T11:26:49.535Z,100237.78
2022-10-14T11:29:26.971Z,100230.03
2022-10-14T11:32:12.117Z,100226.47
2022-10-14T11:34:43.028Z,100216.59
2022-10-14T11:37:28.529Z,100225.03
2022-10-14T11:39:55.129Z,100210.28
2022-10-14T11:42:33.613Z,100212.94
2022-10-14T11:45:21.417Z,100207.41
2022-10-14T11:47:49.171Z,100213.91
2022-10-14T11:50:22.091Z,100214.97
2022-10-14T11:52:56.372Z,100210.03
2022-10-14T11:55:23.626Z,100201.25
2022-10-14T11:57:53.744Z,100198.00
2022-10-14T12:00:39.128Z,100196.38
2022-10-14T12:03:09.667Z,100202.44
2022-10-14T12:05:39.232Z,100193.69
2022-10-14T12:08:27.006Z,100191.03
2022-10-14T12:10:59.480Z,100199.28
2022-10-14T12:13:34.649Z,100195.00
2022-10-14T12:16:02.985Z,100197.78
2022-10-14T12:18:30.470Z,100189.06
2022-10-14T12:21:00.468Z,100191.63
2022-10-14T12:23:33.415Z,100196.84
2022-10-14T12:26:06.827Z,100191.13
2022-10-14T12:28:34.191Z,100186.56
2022-10-14T12:31:19.312Z,100180.56
2022-10-14T12:34:04.480Z,100180.34
2022-10-14T12:36:31.788Z,100176.28
2022-10-14T12:39:16.968Z,100180.59
2022-10-14T12:41:55.659Z,100174.06
2022-10-14T12:44:23.705Z,100171.88
2022-10-14T12:46:51.501Z,100168.09
2022-10-14T12:49:26.975Z,100160.72
2022-10-14T12:51:57.765Z,100159.91
2022-10-14T12:54:24.717Z,100163.69
2022-10-14T12:56:56.385Z,100163.69
2022-10-14T12:59:25.575Z,100158.25
2022-10-14T13:01:56.354Z,100153.63
2022-10-14T13:04:25.895Z,100151.16
2022-10-14T13:07:35.474Z,100149.50
2022-10-14T13:10:02.303Z,100145.19
2022-10-14T13:12:28.639Z,100147.91
2022-10-14T13:14:55.017Z,100144.06
2022-10-14T13:17:28.426Z,100138.59
2022-10-14T13:19:54.969Z,100131.53
2022-10-14T13:22:31.322Z,100133.16
2022-10-14T13:25:12.200Z,100127.69
2022-10-14T13:27:51.955Z,100122.22
2022-10-14T13:30:22.141Z,100127.69
2022-10-14T13:33:08.828Z,100120.63
2022-10-14T13:35:57.988Z,100116.56
2022-10-14T13:38:24.497Z,100111.91
2022-10-14T13:40:57.705Z,100112.72
2022-10-14T13:43:30.141Z,100104.25
2022-10-14T13:46:01.725Z,100090.88
2022-10-14T13:48:30.549Z,100086.25
2022-10-14T13:51:17.533Z,100084.88
2022-10-14T13:53:55.613Z,100094.44
2022-10-14T13:56:25.985Z,100089.47
2022-10-14T13:58:52.661Z,100092.19
2022-10-14T14:01:21.116Z,100084.56
2022-10-14T14:03:51.516Z,100084.56
2022-10-14T14:06:19.251Z,100087.28
2022-10-14T14:08:52.548Z,100084.56
2022-10-14T14:11:23.488Z,100079.41
2022-10-14T14:13:54.421Z,100072.59
2022-10-14T14:16:22.442Z,100069.03
2022-10-14T14:19:03.860Z,100069.31
2022-10-14T14:21:34.045Z,100073.13
2022-10-14T14:24:01.948Z,100066.63
2022-10-14T14:26:32.746Z,100062.56
2022-10-14T14:28:59.351Z,100054.69
2022-10-14T14:31:33.646Z,100053.88
2022-10-14T14:34:28.366Z,100049.53
2022-10-14T14:37:05.717Z,100046.00
2022-10-14T14:39:40.284Z,100037.28
2022-10-14T14:42:11.622Z,100036.47
2022-10-14T14:44:40.644Z,100029.09
2022-10-14T14:47:07.291Z,100025.88
2022-10-14T14:49:38.342Z,100022.31
2022-10-14T14:52:05.382Z,100023.41
2022-10-14T14:54:31.757Z,100019.88
2022-10-14T14:57:01.111Z,100023.69
2022-10-14T14:59:29.439Z,100010.34
2022-10-14T15:01:57.115Z,100015.00
2022-10-14T15:04:27.591Z,100006.28
2022-10-14T15:06:56.741Z,100008.22
2022-10-14T15:09:28.966Z,99996.47
2022-10-14T15:11:58.011Z,100000.34
2022-10-14T15:14:44.447Z,99999.78
2022-10-14T15:17:29.555Z,99997.88
2022-10-14T15:19:57.223Z,99999.25
2022-10-14T15:22:29.582Z,99989.47
2022-10-14T15:25:17.051Z,99992.22
2022-10-14T15:27:47.483Z,99984.03
2022-10-14T15:30:16.671Z,99989.47
2022-10-14T15:32:43.343Z,99978.56
2022-10-14T15:35:12.547Z,99980.47
2022-10-14T15:37:39.175Z,99976.66
2022-10-14T15:40:11.421Z,99975.00
2022-10-14T15:42:38.004Z,99974.22
2022-10-14T15:45:04.924Z,99976.94
2022-10-14T15:47:31.600Z,99968.22
2022-10-14T15:49:58.114Z,99978.03
2022-10-14T15:52:29.595Z,99976.94
2022-10-14T15:54:57.713Z,99972.59
2022-10-14T15:57:24.572Z,99969.84
2022-10-14T15:59:52.832Z,99966.84
2022-10-14T16:02:25.411Z,99978.03
2022-10-14T16:05:18.225Z,99975.00
2022-10-14T16:07:38.705Z,99965.25
2022-10-14T16:10:06.549Z,99956.22
2022-10-14T16:12:32.978Z,99962.78
2022-10-14T16:15:01.668Z,99968.22
2022-10-14T16:17:28.428Z,99965.50
2022-10-14T16:19:54.893Z,99958.44
2022-10-14T16:22:23.752Z,99960.34
2022-10-14T16:24:50.190Z,99953.56
2022-10-14T16:27:19.633Z,99941.06
2022-10-14T16:29:48.396Z,99942.44
2022-10-14T16:32:14.833Z,99949.78
2022-10-14T16:34:44.191Z,99947.38
2022-10-14T16:37:10.662Z,99942.22
2022-10-14T16:39:39.321Z,99937.84
2022-10-14T16:42:09.265Z,99923.19
2022-10-14T16:44:35.715Z,99935.72
2022-10-14T16:47:17.412Z,99937.09
2022-10-14T16:49:44.735Z,99942.84
2022-10-14T16:52:11.435Z,99937.69
2022-10-14T16:54:37.821Z,99937.97
2022-10-14T16:57:04.634Z,99937.97
2022-10-14T16:59:32.073Z,99934.72
2022-10-14T17:01:58.623Z,99933.41
2022-10-14T17:04:25.140Z,99928.25
2022-10-14T17:06:53.268Z,99924.97
2022-10-14T17:09:19.745Z,99924.47
2022-10-14T17:11:46.830Z,99923.94
2022-10-14T17:14:14.910Z,99927.75
2022-10-14T17:16:41.948Z,99920.97
2022-10-14T17:19:08.439Z,99921.81
2022-10-14T17:21:34.786Z,99921.25
2022-10-14T17:24:01.984Z,99925.09
2022-10-14T17:26:29.575Z,99927.31
2022-10-14T17:28:56.797Z,99927.88
2022-10-14T17:31:24.495Z,99930.03
2022-10-14T17:33:51.110Z,99923.25
2022-10-14T17:36:19.582Z,99911.03
2022-10-14T17:38:46.584Z,99917.56
2022-10-14T17:41:13.589Z,99908.34
2022-10-14T17:43:40.316Z,99914.38
2022-10-14T17:46:13.536Z,99910.03
2022-10-14T17:48:42.410Z,99909.53
2022-10-14T17:51:09.568Z,99908.19
2022-10-14T17:53:36.109Z,99909.56
2022-10-14T17:56:03.392Z,99903.59
2022-10-14T17:58:29.953Z,99907.41
2022-10-14T18:01:02.650Z,99904.19
2022-10-14T18:03:29.071Z,99900.13
2022-10-14T18:05:55.451Z,99897.69
2022-10-14T18:08:21.785Z,99892.81
2022-10-14T18:10:48.184Z,99889.56
2022-10-14T18:13:14.551Z,99893.38
2022-10-14T18:15:41.203Z,99890.94
2022-10-14T18:18:08.359Z,99877.63
2022-10-14T18:20:36.235Z,99881.72
2022-10-14T18:23:03.750Z,99878.47
2022-10-14T18:25:31.306Z,99885.28
2022-10-14T18:27:57.866Z,99879.34
2022-10-14T18:30:24.311Z,99872.28
2022-10-14T18:32:54.183Z,99869.28
2022-10-14T18:35:20.548Z,99862.56
2022-10-14T18:37:47.909Z,99865.81
2022-10-14T18:40:16.968Z,99862.59
2022-10-14T18:42:43.320Z,99865.06
2022-10-14T18:45:09.917Z,99864.00
2022-10-14T18:47:36.305Z,99863.47
2022-10-14T18:52:30.014Z,99866.53
2022-10-14T18:54:56.646Z,99849.16
2022-10-14T18:57:25.447Z,99839.41
2022-10-14T18:59:51.810Z,99829.06
2022-10-14T19:02:18.278Z,99828.84
2022-10-14T19:04:44.618Z,99822.06
2022-10-14T19:07:11.015Z,99827.25
2022-10-14T19:09:37.420Z,99828.94
2022-10-14T19:12:24.359Z,99827.59
2022-10-14T19:14:50.916Z,99830.88
2022-10-14T19:17:17.401Z,99838.50
2022-10-14T19:19:44.711Z,99833.63
2022-10-14T19:22:11.199Z,99830.38
2022-10-14T19:24:37.577Z,99835.31
2022-10-14T19:27:04.010Z,99830.13
2022-10-14T19:29:30.465Z,99830.13
2022-10-14T19:31:57.307Z,99828.53
2022-10-14T19:34:26.844Z,99834.22
2022-10-14T19:36:53.821Z,99839.16
2022-10-14T19:39:20.247Z,99822.81
2022-10-14T19:41:47.571Z,99816.84
2022-10-14T19:44:14.905Z,99823.41
2022-10-14T19:46:41.686Z,99817.97
2022-10-14T19:49:08.268Z,99818.78
2022-10-14T19:51:35.087Z,99822.56
2022-10-14T19:54:01.627Z,99829.38
2022-10-14T19:56:28.322Z,99832.13
2022-10-14T19:58:56.338Z,99809.00
2022-10-14T20:01:24.046Z,99822.91
2022-10-14T20:03:50.848Z,99818.28
2022-10-14T20:06:17.346Z,99810.38
2022-10-14T20:08:45.410Z,99803.34
2022-10-14T20:11:12.886Z,99787.59
2022-10-14T20:13:39.430Z,99786.00
2022-10-14T20:16:07.955Z,99799.03
2022-10-14T20:18:34.674Z,99799.31
2022-10-14T20:21:01.493Z,99790.34
2022-10-14T20:23:28.330Z,99786.03
2022-10-14T20:26:05.327Z,99792.53
2022-10-14T20:28:32.089Z,99783.06
2022-10-14T20:30:58.634Z,99784.97
2022-10-14T20:33:25.167Z,99783.06
2022-10-14T20:36:01.939Z,99782.78
2022-10-14T20:38:28.541Z,99788.22
2022-10-14T20:40:55.024Z,99785.78
2022-10-14T20:43:21.390Z,99782.28
2022-10-14T20:45:47.837Z,99785.28
2022-10-14T20:48:14.500Z,99781.72
2022-10-14T20:50:41.592Z,99781.22
2022-10-14T20:53:08.037Z,99778.22
2022-10-14T20:55:34.492Z,99775.78
2022-10-14T20:58:00.860Z,99773.06
2022-10-14T21:00:27.557Z,99760.56
2022-10-14T21:02:54.234Z,99771.44
2022-10-14T21:05:20.727Z,99765.16
2022-10-14T21:07:47.159Z,99753.50
2022-10-14T21:10:13.804Z,99760.03
2022-10-14T21:12:42.214Z,99750.78
2022-10-14T21:15:10.794Z,99761.66
2022-10-14T21:17:37.195Z,99768.19
2022-10-14T21:20:03.877Z,99774.16
2022-10-14T21:22:30.254Z,99758.66
2022-10-14T21:24:56.718Z,99751.31
2022-10-14T21:27:23.324Z,99758.38
2022-10-14T21:29:50.202Z,99756.75
2022-10-14T21:32:16.711Z,99752.13
2022-10-14T21:34:43.092Z,99745.91
2022-10-14T21:37:09.527Z,99747.50
2022-10-14T21:39:36.063Z,99744.78
2022-10-14T21:42:02.479Z,99735.53
2022-10-14T21:44:28.924Z,99743.69
2022-10-14T21:46:55.356Z,99743.69
2022-10-14T21:49:21.869Z,99742.06
2022-10-14T21:51:48.388Z,99736.63
2022-10-14T21:54:14.829Z,99735.81
2022-10-14T21:56:41.451Z,99732.03
2022-10-14T21:59:07.835Z,99732.03
2022-10-14T22:01:34.382Z,99736.63
2022-10-14T22:04:03.868Z,99744.78
2022-10-14T22:06:31.212Z,99745.91
2022-10-14T22:08:58.470Z,99738.53
2022-10-14T22:11:27.910Z,99733.09
2022-10-14T22:13:55.282Z,99733.41
2022-10-14T22:16:21.775Z,99733.91
2022-10-14T22:18:50.743Z,99733.91
2022-10-14T22:21:18.482Z,99755.13
2022-10-14T22:23:45.427Z,99730.69
2022-10-14T22:26:12.852Z,99719.81
2022-10-14T22:28:39.668Z,99723.31
2022-10-14T22:31:06.939Z,99720.91
2022-10-14T22:33:33.987Z,99735.03
2022-10-14T22:36:06.296Z,99724.97
2022-10-14T22:38:32.881Z,99737.75
2022-10-14T22:41:02.832Z,99734.19
2022-10-14T22:43:29.228Z,99713.28
2022-10-14T22:46:02.256Z,99732.31
2022-10-14T22:48:30.016Z,99723.03
2022-10-14T22:50:56.823Z,99721.94
2022-10-14T22:53:23.276Z,99716.00
2022-10-14T22:55:53.139Z,99720.84
2022-10-14T22:58:19.584Z,99716.50
2022-10-14T23:00:46.310Z,99719.78
2022-10-14T23:03:12.751Z,99719.22
2022-10-14T23:05:39.284Z,99720.84
2022-10-14T23:08:10.687Z,99731.75
2022-10-14T23:10:40.192Z,99723.03
2022-10-14T23:13:06.924Z,99726.59
2022-10-14T23:15:33.612Z,99721.94
2022-10-14T23:18:00.387Z,99723.03
2022-10-14T23:20:26.811Z,99728.75
2022-10-14T23:22:53.176Z,99725.75
2022-10-14T23:25:19.732Z,99729.59
2022-10-14T23:27:46.191Z,99733.41
2022-10-14T23:30:12.689Z,99735.81
2022-10-14T23:32:39.072Z,99731.19
2022-10-14T23:35:05.696Z,99732.81
2022-10-14T23:37:32.156Z,99727.38
2022-10-14T23:40:01.709Z,99721.66
2022-10-14T23:42:28.138Z,99725.22
2022-10-14T23:44:54.524Z,99728.44
2022-10-14T23:47:21.179Z,99731.16
2022-10-14T23:49:47.857Z,99733.31
2022-10-14T23:52:14.244Z,99729.22
2022-10-14T23:54:40.646Z,99734.38
2022-10-14T23:57:07.194Z,99725.66
2022-10-14T23:59:33.600Z,99730.78
